KCXU

Camilla-Mitchell County Airport

Camilla, Georgia, USA
METAR KCXU 260255Z AUTO 00000KT 10SM SCT005 BKN026 OVC055 17/16 A3018 RMK AO1 T01660162
Observed Flight Rules
Feb-26 @ 02:55 UTC (21 minutes ago) Marginal Visual Flight Rules
Wind Visibility Clouds
Calm 10 miles
  • Scattered at 500' AGL
  • Broken at 2,600' AGL
  • Overcast at 5,500' AGL
Temperatures Readings
Current 17°C / 63°F
Dewpoint 16°C / 61°F
Humidity 94%
Altimeter 30.18" Hg
Pressure 1022 hPa
Elevation 53
METAR KCXU 260255Z AUTO 00000KT 10SM SCT005 BKN026 OVC055 17/16 A3018 RMK AO1 T01660162
Observed Flight Rules
Feb-26 @ 02:55 UTC
(21 minutes ago)
MVFR
Wind Visibility
Calm 10 miles
Clouds
  • Scattered at 500' AGL
  • Broken at 2,600' AGL
  • Overcast at 5,500' AGL
Temperature Dewpoint
17°C / 63°F 16°C / 61°F
Humidity Altimeter Pressure
94% 30.18" Hg 1022 hPa